createdAt,value
2019-06-15T00:00:29.111Z,14.44
2019-06-15T00:02:55.226Z,14.44
2019-06-15T00:05:21.123Z,14.44
2019-06-15T00:07:47.072Z,14.46
2019-06-15T00:10:13.165Z,14.46
2019-06-15T00:12:39.517Z,14.46
2019-06-15T00:15:05.848Z,14.47
2019-06-15T00:17:31.748Z,14.47
2019-06-15T00:19:57.681Z,14.47
2019-06-15T00:22:23.635Z,14.48
2019-06-15T00:24:49.553Z,14.47
2019-06-15T00:27:15.627Z,14.45
2019-06-15T00:29:41.610Z,14.44
2019-06-15T00:32:07.622Z,14.44
2019-06-15T00:34:33.505Z,14.44
2019-06-15T00:36:59.456Z,14.41
2019-06-15T00:39:25.426Z,14.35
2019-06-15T00:41:51.389Z,14.32
2019-06-15T00:44:17.295Z,14.27
2019-06-15T00:46:43.216Z,14.23
2019-06-15T00:49:09.211Z,14.22
2019-06-15T00:51:35.150Z,14.18
2019-06-15T00:54:01.255Z,14.16
2019-06-15T00:56:27.212Z,14.14
2019-06-15T00:58:53.219Z,14.16
2019-06-15T01:01:19.123Z,14.17
2019-06-15T01:03:45.289Z,14.18
2019-06-15T01:06:11.187Z,14.19
2019-06-15T01:08:37.199Z,14.19
2019-06-15T01:11:03.301Z,14.19
2019-06-15T01:13:29.381Z,14.18
2019-06-15T01:15:55.396Z,14.14
2019-06-15T01:18:21.344Z,14.09
2019-06-15T01:20:47.359Z,14.04
2019-06-15T01:23:13.258Z,13.98
2019-06-15T01:25:39.215Z,13.98
2019-06-15T01:28:05.208Z,13.93
2019-06-15T01:30:31.212Z,13.88
2019-06-15T01:32:57.337Z,13.84
2019-06-15T01:35:23.339Z,13.79
2019-06-15T01:37:49.337Z,13.77
2019-06-15T01:40:15.777Z,13.78
2019-06-15T01:42:41.673Z,13.75
2019-06-15T01:45:08.091Z,13.74
2019-06-15T01:47:34.316Z,13.75
2019-06-15T01:50:00.202Z,13.79
2019-06-15T01:52:26.244Z,13.80
2019-06-15T01:54:52.157Z,13.81
2019-06-15T01:57:18.480Z,13.79
2019-06-15T01:59:44.396Z,13.79
2019-06-15T02:02:10.294Z,13.72
2019-06-15T02:04:36.410Z,13.68
2019-06-15T02:07:02.520Z,13.66
2019-06-15T02:09:28.561Z,13.67
2019-06-15T02:11:55.799Z,13.69
2019-06-15T02:14:21.979Z,13.72
2019-06-15T02:16:47.916Z,13.76
2019-06-15T02:19:13.791Z,13.75
2019-06-15T02:21:39.787Z,13.66
2019-06-15T02:24:05.934Z,13.69
2019-06-15T02:26:31.957Z,13.60
2019-06-15T02:28:57.943Z,13.54
2019-06-15T02:31:24.105Z,13.49
2019-06-15T02:33:50.046Z,13.45
2019-06-15T02:36:15.918Z,13.44
2019-06-15T02:38:41.962Z,13.44
2019-06-15T02:41:08.089Z,13.45
2019-06-15T02:43:33.989Z,13.47
2019-06-15T02:46:00.212Z,13.50
2019-06-15T02:48:26.323Z,13.52
2019-06-15T02:50:52.427Z,13.49
2019-06-15T02:53:18.327Z,13.49
2019-06-15T02:55:50.753Z,13.49
2019-06-15T02:58:12.287Z,13.47
2019-06-15T03:00:47.882Z,13.48
2019-06-15T03:03:14.311Z,13.49
2019-06-15T03:05:40.624Z,13.49
2019-06-15T03:08:06.678Z,13.51
2019-06-15T03:10:32.607Z,13.52
2019-06-15T03:12:59.097Z,13.55
2019-06-15T03:15:25.240Z,13.59
2019-06-15T03:17:51.175Z,13.60
2019-06-15T03:20:18.344Z,13.58
2019-06-15T03:22:44.213Z,13.56
2019-06-15T03:25:11.030Z,13.58
2019-06-15T03:27:37.035Z,13.57
2019-06-15T03:30:06.300Z,13.54
2019-06-15T03:32:32.212Z,13.50
2019-06-15T03:34:58.124Z,13.49
2019-06-15T03:37:24.184Z,13.45
2019-06-15T03:39:50.109Z,13.42
2019-06-15T03:42:16.218Z,13.39
2019-06-15T03:44:42.155Z,13.38
2019-06-15T03:47:08.073Z,13.40
2019-06-15T03:49:33.983Z,13.42
2019-06-15T03:51:59.890Z,13.46
2019-06-15T03:54:25.790Z,13.47
2019-06-15T03:56:51.705Z,13.47
2019-06-15T03:59:17.784Z,13.51
2019-06-15T04:01:48.749Z,13.54
2019-06-15T04:04:14.763Z,13.53
2019-06-15T04:06:40.883Z,13.52
2019-06-15T04:09:07.383Z,13.54
2019-06-15T04:11:33.508Z,13.55
2019-06-15T04:13:59.432Z,13.55
2019-06-15T04:16:25.531Z,13.50
2019-06-15T04:18:51.588Z,13.48
2019-06-15T04:21:17.717Z,13.45
2019-06-15T04:23:43.719Z,13.43
2019-06-15T04:26:09.858Z,13.41
2019-06-15T04:28:35.787Z,13.42
2019-06-15T04:31:01.786Z,13.41
2019-06-15T04:33:27.813Z,13.45
2019-06-15T04:35:53.747Z,13.49
2019-06-15T04:38:19.669Z,13.52
2019-06-15T04:40:45.578Z,13.58
2019-06-15T04:43:11.565Z,13.60
2019-06-15T04:45:37.483Z,13.62
2019-06-15T04:48:03.968Z,13.65
2019-06-15T04:50:29.862Z,13.67
2019-06-15T04:52:56.074Z,13.66
2019-06-15T04:55:22.030Z,13.67
2019-06-15T04:57:47.929Z,13.70
2019-06-15T05:00:14.070Z,13.72
2019-06-15T05:02:40.125Z,13.76
2019-06-15T05:05:07.021Z,13.80
2019-06-15T05:07:33.308Z,13.78
2019-06-15T05:09:59.395Z,13.79
2019-06-15T05:12:25.316Z,13.81
2019-06-15T05:14:51.231Z,13.84
2019-06-15T05:17:17.454Z,13.84
2019-06-15T05:19:43.470Z,13.83
2019-06-15T05:22:09.392Z,13.83
2019-06-15T05:24:35.317Z,13.85
2019-06-15T05:27:06.376Z,13.84
2019-06-15T05:29:29.068Z,13.84
2019-06-15T05:31:54.973Z,13.84
2019-06-15T05:34:20.892Z,13.83
2019-06-15T05:36:46.911Z,13.82
2019-06-15T05:39:12.853Z,13.81
2019-06-15T05:41:38.730Z,13.85
2019-06-15T05:44:04.734Z,13.85
2019-06-15T05:46:30.772Z,13.84
2019-06-15T05:48:56.800Z,13.83
2019-06-15T05:51:22.716Z,13.85
2019-06-15T05:53:48.623Z,13.87
2019-06-15T05:56:14.618Z,13.90
2019-06-15T05:58:40.520Z,13.89
2019-06-15T06:01:06.498Z,13.87
2019-06-15T06:03:32.428Z,13.87
2019-06-15T06:05:58.325Z,13.87
2019-06-15T06:08:24.360Z,13.90
2019-06-15T06:10:50.264Z,13.95
2019-06-15T06:13:16.185Z,14.02
2019-06-15T06:15:42.256Z,14.05
2019-06-15T06:18:08.470Z,14.11
2019-06-15T06:20:34.378Z,13.84
2019-06-15T06:23:00.301Z,14.18
2019-06-15T06:25:26.227Z,14.23
2019-06-15T06:27:52.145Z,14.28
2019-06-15T06:30:18.378Z,14.34
2019-06-15T06:32:44.277Z,14.41
2019-06-15T06:35:10.473Z,14.42
2019-06-15T06:37:36.571Z,14.42
2019-06-15T06:40:06.145Z,14.46
2019-06-15T06:42:32.050Z,14.51
2019-06-15T06:44:58.177Z,14.58
2019-06-15T06:47:24.130Z,14.61
2019-06-15T06:49:50.107Z,14.67
2019-06-15T06:52:16.009Z,14.74
2019-06-15T06:54:41.919Z,14.81
2019-06-15T06:57:07.939Z,14.88
2019-06-15T06:59:33.842Z,14.95
2019-06-15T07:01:59.917Z,15.01
2019-06-15T07:04:25.963Z,15.07
2019-06-15T07:06:51.993Z,15.11
2019-06-15T07:09:18.196Z,15.16
2019-06-15T07:11:44.263Z,15.23
2019-06-15T07:14:10.436Z,15.32
2019-06-15T07:16:36.499Z,15.39
2019-06-15T07:19:02.826Z,15.45
2019-06-15T07:21:28.818Z,15.51
2019-06-15T07:23:54.707Z,15.58
2019-06-15T07:26:20.733Z,15.68
2019-06-15T07:28:46.667Z,15.76
2019-06-15T07:31:12.555Z,15.85
2019-06-15T07:33:38.488Z,15.95
2019-06-15T07:36:04.385Z,16.03
2019-06-15T07:38:30.395Z,16.10
2019-06-15T07:40:56.434Z,16.18
2019-06-15T07:43:22.342Z,16.23
2019-06-15T07:45:48.246Z,16.29
2019-06-15T07:48:14.185Z,16.36
2019-06-15T07:50:40.105Z,16.43
2019-06-15T07:53:06.116Z,16.50
2019-06-15T07:55:32.836Z,16.56
2019-06-15T07:57:58.753Z,16.62
2019-06-15T08:00:25.071Z,16.68
2019-06-15T08:02:51.093Z,16.74
2019-06-15T08:05:17.270Z,16.81
2019-06-15T08:07:43.376Z,16.90
2019-06-15T08:10:10.023Z,16.98
2019-06-15T08:12:36.044Z,17.05
2019-06-15T08:15:04.161Z,17.10
2019-06-15T08:17:30.083Z,16.87
2019-06-15T08:19:56.197Z,17.23
2019-06-15T08:22:22.202Z,17.28
2019-06-15T08:24:48.438Z,17.35
2019-06-15T08:27:14.430Z,17.41
2019-06-15T08:29:40.345Z,17.44
2019-06-15T08:32:06.370Z,17.47
2019-06-15T08:34:32.424Z,17.53
2019-06-15T08:36:58.452Z,17.59
2019-06-15T08:39:24.391Z,17.66
2019-06-15T08:41:50.289Z,17.75
2019-06-15T08:44:16.325Z,17.82
2019-06-15T08:46:42.390Z,17.88
2019-06-15T08:49:08.410Z,17.94
2019-06-15T08:51:34.326Z,17.98
2019-06-15T08:54:00.266Z,18.01
2019-06-15T08:56:26.372Z,18.05
2019-06-15T08:58:55.527Z,18.10
2019-06-15T09:01:20.307Z,18.16
2019-06-15T09:03:49.346Z,18.21
2019-06-15T09:06:14.327Z,18.27
2019-06-15T09:08:40.379Z,18.33
2019-06-15T09:11:06.483Z,18.40
2019-06-15T09:13:32.415Z,18.47
2019-06-15T09:15:58.643Z,18.53
2019-06-15T09:18:24.688Z,18.58
2019-06-15T09:20:52.789Z,18.63
2019-06-15T09:23:19.254Z,18.71
2019-06-15T09:25:45.257Z,18.80
2019-06-15T09:28:11.266Z,18.90
2019-06-15T09:30:37.440Z,18.37
2019-06-15T09:33:03.531Z,19.08
2019-06-15T09:35:29.631Z,19.17
2019-06-15T09:37:55.676Z,19.28
2019-06-15T09:40:21.818Z,19.36
2019-06-15T09:42:47.730Z,19.44
2019-06-15T09:45:13.833Z,19.50
2019-06-15T09:47:39.762Z,19.59
2019-06-15T09:50:06.298Z,19.67
2019-06-15T09:52:32.289Z,19.94
2019-06-15T09:54:58.224Z,20.38
2019-06-15T09:57:24.122Z,20.86
2019-06-15T09:59:50.019Z,21.31
2019-06-15T10:02:16.146Z,21.72
2019-06-15T10:04:42.072Z,22.09
2019-06-15T10:07:08.079Z,22.40
2019-06-15T10:09:34.005Z,22.62
2019-06-15T10:12:00.328Z,22.82
2019-06-15T10:14:26.236Z,23.01
2019-06-15T10:16:52.282Z,23.22
2019-06-15T10:19:18.198Z,23.36
2019-06-15T10:21:44.373Z,23.47
2019-06-15T10:24:10.278Z,23.57
2019-06-15T10:26:36.297Z,23.55
2019-06-15T10:29:02.633Z,23.57
2019-06-15T10:31:28.690Z,23.69
2019-06-15T10:33:54.642Z,23.81
2019-06-15T10:36:20.795Z,23.87
2019-06-15T10:38:46.818Z,24.00
2019-06-15T10:41:12.730Z,24.14
2019-06-15T10:43:38.631Z,24.24
2019-06-15T10:46:04.568Z,24.35
2019-06-15T10:48:30.596Z,24.50
2019-06-15T10:50:56.680Z,24.63
2019-06-15T10:53:22.641Z,24.73
2019-06-15T10:55:48.565Z,24.85
2019-06-15T10:58:14.570Z,24.97
2019-06-15T11:00:40.807Z,25.03
2019-06-15T11:03:06.812Z,25.08
2019-06-15T11:05:32.815Z,25.14
2019-06-15T11:07:58.962Z,25.18
2019-06-15T11:10:34.398Z,25.17
2019-06-15T11:13:00.934Z,25.20
2019-06-15T11:15:26.931Z,25.29
2019-06-15T11:17:52.933Z,25.40
2019-06-15T11:20:19.073Z,25.45
2019-06-15T11:22:45.529Z,25.53
2019-06-15T11:25:11.619Z,25.61
2019-06-15T11:27:39.577Z,25.69
2019-06-15T11:30:13.433Z,25.73
2019-06-15T11:32:33.899Z,25.79
2019-06-15T11:34:59.837Z,25.84
2019-06-15T11:37:25.788Z,25.88
2019-06-15T11:39:51.777Z,25.88
2019-06-15T11:42:17.722Z,25.82
2019-06-15T11:44:43.656Z,25.80
2019-06-15T11:47:09.781Z,25.85
2019-06-15T11:49:35.808Z,25.87
2019-06-15T11:52:01.923Z,25.88
2019-06-15T11:54:27.934Z,25.86
2019-06-15T11:56:53.954Z,25.84
2019-06-15T11:59:19.966Z,25.85
2019-06-15T12:01:45.990Z,25.87
2019-06-15T12:04:11.899Z,25.89
2019-06-15T12:06:38.034Z,25.88
2019-06-15T12:09:05.887Z,25.89
2019-06-15T12:11:31.824Z,25.89
2019-06-15T12:13:58.026Z,25.91
2019-06-15T12:16:24.057Z,25.92
2019-06-15T12:18:50.165Z,25.89
2019-06-15T12:21:16.049Z,25.81
2019-06-15T12:23:42.164Z,25.72
2019-06-15T12:26:08.314Z,25.68
2019-06-15T12:28:34.306Z,25.65
2019-06-15T12:31:00.411Z,25.61
2019-06-15T12:33:26.454Z,25.59
2019-06-15T12:35:52.471Z,25.61
2019-06-15T12:38:18.647Z,25.59
2019-06-15T12:40:44.595Z,25.57
2019-06-15T12:43:10.590Z,25.50
2019-06-15T12:45:36.593Z,25.43
2019-06-15T12:48:02.719Z,25.09
2019-06-15T12:50:28.747Z,25.27
2019-06-15T12:52:54.736Z,25.23
2019-06-15T12:55:20.864Z,25.19
2019-06-15T12:57:46.992Z,25.12
2019-06-15T13:00:13.800Z,25.04
2019-06-15T13:02:39.955Z,24.93
2019-06-15T13:05:06.452Z,24.88
2019-06-15T13:07:32.626Z,24.85
2019-06-15T13:09:58.531Z,24.77
2019-06-15T13:12:24.440Z,24.72
2019-06-15T13:14:50.833Z,24.66
2019-06-15T13:17:16.793Z,24.64
2019-06-15T13:19:42.683Z,24.59
2019-06-15T13:22:08.787Z,24.54
2019-06-15T13:24:34.716Z,24.41
2019-06-15T13:27:00.709Z,24.30
2019-06-15T13:29:26.802Z,24.21
2019-06-15T13:31:52.744Z,24.10
2019-06-15T13:34:18.779Z,23.97
2019-06-15T13:36:44.848Z,23.89
2019-06-15T13:39:10.889Z,23.81
2019-06-15T13:41:36.785Z,23.74
2019-06-15T13:44:03.050Z,23.67
2019-06-15T13:46:29.105Z,23.63
2019-06-15T13:48:55.016Z,23.53
2019-06-15T13:51:21.334Z,23.47
2019-06-15T13:53:47.243Z,23.40
2019-06-15T13:56:13.144Z,23.32
2019-06-15T13:58:39.310Z,23.27
2019-06-15T14:01:05.372Z,23.18
2019-06-15T14:03:31.390Z,23.12
2019-06-15T14:05:57.473Z,23.05
2019-06-15T14:08:23.476Z,22.97
2019-06-15T14:10:49.376Z,22.60
2019-06-15T14:13:15.359Z,22.80
2019-06-15T14:15:41.556Z,22.72
2019-06-15T14:18:07.486Z,22.64
2019-06-15T14:20:33.788Z,22.56
2019-06-15T14:22:59.825Z,22.53
2019-06-15T14:25:25.847Z,22.49
2019-06-15T14:27:51.891Z,22.47
2019-06-15T14:30:18.240Z,22.46
2019-06-15T14:32:44.322Z,22.40
2019-06-15T14:35:11.411Z,22.34
2019-06-15T14:37:37.330Z,22.30
2019-06-15T14:40:03.760Z,22.26
2019-06-15T14:42:29.850Z,22.20
2019-06-15T14:44:55.756Z,22.15
2019-06-15T14:47:22.075Z,22.14
2019-06-15T14:49:48.132Z,22.15
2019-06-15T14:52:14.067Z,22.15
2019-06-15T14:54:40.091Z,22.16
2019-06-15T14:57:06.846Z,22.10
2019-06-15T14:59:32.810Z,22.07
2019-06-15T15:02:09.994Z,22.08
2019-06-15T15:04:26.876Z,22.07
2019-06-15T15:06:53.038Z,22.04
2019-06-15T15:09:18.944Z,21.99
2019-06-15T15:11:46.122Z,21.96
2019-06-15T15:14:12.192Z,21.94
2019-06-15T15:16:38.421Z,21.98
2019-06-15T15:19:06.106Z,22.01
2019-06-15T15:21:32.115Z,22.04
2019-06-15T15:23:58.126Z,22.06
2019-06-15T15:26:26.535Z,22.03
2019-06-15T15:28:52.320Z,21.97
2019-06-15T15:31:18.227Z,21.96
2019-06-15T15:33:47.402Z,21.93
2019-06-15T15:36:12.579Z,21.97
2019-06-15T15:38:38.475Z,21.99
2019-06-15T15:41:06.706Z,21.94
2019-06-15T15:43:32.717Z,21.95
2019-06-15T15:45:58.738Z,22.04
2019-06-15T15:48:25.889Z,22.24
2019-06-15T15:50:51.942Z,22.47
2019-06-15T15:53:17.968Z,22.65
2019-06-15T15:55:46.616Z,22.78
2019-06-15T15:58:11.961Z,22.88
2019-06-15T16:00:38.170Z,22.88
2019-06-15T16:03:06.807Z,22.85
2019-06-15T16:05:32.391Z,22.95
2019-06-15T16:07:58.661Z,23.12
2019-06-15T16:10:26.695Z,23.25
2019-06-15T16:12:53.373Z,23.31
2019-06-15T16:15:19.493Z,23.41
2019-06-15T16:17:46.468Z,23.47
2019-06-15T16:20:17.432Z,23.55
2019-06-15T16:22:45.936Z,23.53
2019-06-15T16:25:12.259Z,23.50
2019-06-15T16:27:38.266Z,23.51
2019-06-15T16:30:06.447Z,23.47
2019-06-15T16:32:32.596Z,23.41
2019-06-15T16:34:58.561Z,23.35
2019-06-15T16:37:26.022Z,23.27
2019-06-15T16:39:52.419Z,23.21
2019-06-15T16:42:18.496Z,23.16
2019-06-15T16:44:46.801Z,23.08
2019-06-15T16:47:13.037Z,22.99
2019-06-15T16:49:39.069Z,22.90
2019-06-15T16:52:06.228Z,22.80
2019-06-15T16:54:32.329Z,22.70
2019-06-15T16:56:58.235Z,22.64
2019-06-15T16:59:24.140Z,22.60
2019-06-15T17:01:50.229Z,22.58
2019-06-15T17:04:16.667Z,22.52
2019-06-15T17:06:42.756Z,22.45
2019-06-15T17:09:08.840Z,22.37
2019-06-15T17:11:36.710Z,22.32
2019-06-15T17:14:02.840Z,22.27
2019-06-15T17:16:28.920Z,22.18
2019-06-15T17:18:56.205Z,22.05
2019-06-15T17:21:22.341Z,21.94
2019-06-15T17:23:48.358Z,21.86
2019-06-15T17:26:16.671Z,21.75
2019-06-15T17:28:42.356Z,21.66
2019-06-15T17:31:08.665Z,21.59
2019-06-15T17:33:38.229Z,21.51
2019-06-15T17:36:03.221Z,21.43
2019-06-15T17:38:30.450Z,21.35
2019-06-15T17:40:57.095Z,21.29
2019-06-15T17:43:23.184Z,21.26
2019-06-15T17:45:49.290Z,21.21
2019-06-15T17:48:17.381Z,21.18
2019-06-15T17:50:47.465Z,21.13
2019-06-15T17:53:13.084Z,21.11
2019-06-15T17:55:39.092Z,21.07
2019-06-15T17:58:06.508Z,21.01
2019-06-15T18:00:39.248Z,20.94
2019-06-15T18:03:06.847Z,20.87
2019-06-15T18:05:32.967Z,20.82
2019-06-15T18:08:01.585Z,20.78
2019-06-15T18:10:26.863Z,20.73
2019-06-15T18:12:52.886Z,20.66
2019-06-15T18:15:18.907Z,20.61
2019-06-15T18:17:44.927Z,20.59
2019-06-15T18:20:11.858Z,20.59
2019-06-15T18:22:37.936Z,20.53
2019-06-15T18:25:06.433Z,20.50
2019-06-15T18:27:32.602Z,20.44
2019-06-15T18:29:58.619Z,20.39
2019-06-15T18:32:26.448Z,20.35
2019-06-15T18:34:52.343Z,20.30
2019-06-15T18:37:18.443Z,20.32
2019-06-15T18:39:46.613Z,20.34
2019-06-15T18:42:12.300Z,20.36
2019-06-15T18:44:38.577Z,20.41
2019-06-15T18:47:06.930Z,20.43
2019-06-15T18:49:32.416Z,20.41
2019-06-15T18:51:58.432Z,20.38
2019-06-15T18:54:26.545Z,20.40
2019-06-15T18:56:52.259Z,20.46
2019-06-15T18:59:18.494Z,20.48
2019-06-15T19:01:46.812Z,20.50
2019-06-15T19:04:24.631Z,20.44
2019-06-15T19:06:40.311Z,20.32
2019-06-15T19:09:07.145Z,20.23
2019-06-15T19:11:33.080Z,20.11
2019-06-15T19:13:59.114Z,19.90
2019-06-15T19:16:25.127Z,19.69
2019-06-15T19:18:51.077Z,19.53
2019-06-15T19:21:17.179Z,19.32
2019-06-15T19:23:43.067Z,19.12
2019-06-15T19:26:09.170Z,18.98
2019-06-15T19:28:37.054Z,18.88
2019-06-15T19:31:03.423Z,18.80
2019-06-15T19:33:29.342Z,18.76
2019-06-15T19:35:56.938Z,18.70
2019-06-15T19:38:23.048Z,18.62
2019-06-15T19:40:49.169Z,18.54
2019-06-15T19:43:16.225Z,18.13
2019-06-15T19:45:42.409Z,18.34
2019-06-15T19:48:08.445Z,18.22
2019-06-15T19:50:36.198Z,18.14
2019-06-15T19:53:02.623Z,18.06
2019-06-15T19:55:28.564Z,18.04
2019-06-15T19:57:56.740Z,17.97
2019-06-15T20:00:22.471Z,17.85
2019-06-15T20:02:48.503Z,17.74
2019-06-15T20:05:14.854Z,17.65
2019-06-15T20:07:40.879Z,17.54
2019-06-15T20:10:10.572Z,17.45
2019-06-15T20:12:37.444Z,17.39
2019-06-15T20:15:06.379Z,17.32
2019-06-15T20:17:32.566Z,17.19
2019-06-15T20:19:58.659Z,17.11
2019-06-15T20:22:27.474Z,17.04
2019-06-15T20:24:52.662Z,17.00
2019-06-15T20:27:18.851Z,16.94
2019-06-15T20:29:47.353Z,16.85
2019-06-15T20:32:12.781Z,16.78
2019-06-15T20:34:38.862Z,16.69
2019-06-15T20:37:04.803Z,16.61
2019-06-15T20:39:30.688Z,16.52
2019-06-15T20:41:56.763Z,16.47
2019-06-15T20:44:22.720Z,16.41
2019-06-15T20:46:48.637Z,16.38
2019-06-15T20:49:14.683Z,16.35
2019-06-15T20:51:40.829Z,16.33
2019-06-15T20:54:07.170Z,16.29
2019-06-15T20:56:33.617Z,16.25
2019-06-15T20:58:59.659Z,16.22
2019-06-15T21:01:26.096Z,16.16
2019-06-15T21:03:52.155Z,16.06
2019-06-15T21:06:18.112Z,15.98
2019-06-15T21:08:44.022Z,15.92
2019-06-15T21:11:10.007Z,15.87
2019-06-15T21:13:37.422Z,15.82
2019-06-15T21:16:06.493Z,15.74
2019-06-15T21:18:33.973Z,15.66
2019-06-15T21:20:59.496Z,15.58
2019-06-15T21:23:26.852Z,15.51
2019-06-15T21:25:53.117Z,15.48
2019-06-15T21:28:19.023Z,15.44
2019-06-15T21:30:47.026Z,15.45
2019-06-15T21:33:14.431Z,15.43
2019-06-15T21:35:49.159Z,15.43
2019-06-15T21:38:08.373Z,15.40
2019-06-15T21:40:36.627Z,15.38
2019-06-15T21:43:02.468Z,15.35
2019-06-15T21:45:28.493Z,15.32
2019-06-15T21:47:56.088Z,15.28
2019-06-15T21:50:22.073Z,15.24
2019-06-15T21:52:47.983Z,15.20
2019-06-15T21:55:16.011Z,15.18
2019-06-15T21:57:42.048Z,15.14
2019-06-15T22:00:11.729Z,15.02
2019-06-15T22:02:37.754Z,14.94
2019-06-15T22:05:06.972Z,14.87
2019-06-15T22:07:32.675Z,14.83
2019-06-15T22:09:58.684Z,14.78
2019-06-15T22:12:26.798Z,14.76
2019-06-15T22:14:52.541Z,14.72
2019-06-15T22:17:18.558Z,14.67
2019-06-15T22:19:46.536Z,14.66
2019-06-15T22:22:12.275Z,14.61
2019-06-15T22:24:38.389Z,14.59
2019-06-15T22:27:06.674Z,14.56
2019-06-15T22:29:32.375Z,14.55
2019-06-15T22:31:58.504Z,14.52
2019-06-15T22:34:24.418Z,14.51
2019-06-15T22:36:50.350Z,14.48
2019-06-15T22:39:17.170Z,14.47
2019-06-15T22:41:43.286Z,14.47
2019-06-15T22:44:09.360Z,14.47
2019-06-15T22:46:35.535Z,14.45
2019-06-15T22:49:01.443Z,14.08
2019-06-15T22:51:27.723Z,14.35
2019-06-15T22:53:56.378Z,14.32
2019-06-15T22:56:21.605Z,14.29
2019-06-15T22:58:47.526Z,14.25
2019-06-15T23:01:13.710Z,14.22
2019-06-15T23:03:39.731Z,14.21
2019-06-15T23:06:06.963Z,14.21
2019-06-15T23:08:33.317Z,14.21
2019-06-15T23:10:59.235Z,14.24
2019-06-15T23:13:26.178Z,14.26
2019-06-15T23:15:52.364Z,14.28
2019-06-15T23:18:18.249Z,14.27
2019-06-15T23:20:46.254Z,14.26
2019-06-15T23:23:12.173Z,14.26
2019-06-15T23:25:38.397Z,14.25
2019-06-15T23:28:06.939Z,14.26
2019-06-15T23:30:32.446Z,14.27
2019-06-15T23:32:58.392Z,14.28
2019-06-15T23:35:31.908Z,14.28
2019-06-15T23:37:58.018Z,14.30
2019-06-15T23:40:26.912Z,14.31
2019-06-15T23:42:53.032Z,14.29
2019-06-15T23:45:19.784Z,14.26
2019-06-15T23:47:46.761Z,14.24
2019-06-15T23:50:13.156Z,14.23
2019-06-15T23:52:39.163Z,14.22
2019-06-15T23:55:06.198Z,14.20
2019-06-15T23:57:32.284Z,14.20
2019-06-15T23:59:58.288Z,14.20
